Погода Правокумскийна 2 недели

Ставропольский край, Россия

13 - 26 июля
  • 13июля
    Сегодня
    +17°
    +33°
    Ясно и безоблачно
    ВремяПогодаТемператураВлажностьДавлениеВетер, м/сВероятность осадков
    00:00Ясно и безоблачно+24°C19 %750 мм1.6 м/с2 %
    03:00Ясно и безоблачно+21°C23 %750 мм1.8 м/с2 %
    06:00Ясно и безоблачно+21°C24 %750 мм1.5 м/с2 %
    09:00Ясно и безоблачно+28°C18 %750 мм2.6 м/с2 %
    12:00Ясно и безоблачно+31°C14 %749 мм3.1 м/с2 %
    15:00Ясно и безоблачно+32°C12 %748 мм3.0 м/с2 %
    18:00Ясно и безоблачно+31°C13 %748 мм3.1 м/с2 %
    21:00Ясно и безоблачно+25°C18 %749 мм2.1 м/с2 %
  • 14июля
    Воскресенье
    +20°
    +33°
    Ясно и безоблачно
    ВремяПогодаТемператураВлажностьДавлениеВетер, м/сВероятность осадков
    00:00Ясно и безоблачно+22°C21 %748 мм1.7 м/с2 %
    03:00Ясно и безоблачно+19°C25 %748 мм0.9 м/с2 %
    06:00Ясно и безоблачно+20°C24 %749 мм1.2 м/с2 %
    09:00Ясно и безоблачно+28°C13 %749 мм2.5 м/с2 %
    12:00Ясно и безоблачно+31°C11 %748 мм3.0 м/с2 %
    15:00Ясно и безоблачно+33°C11 %747 мм3.2 м/с2 %
    18:00Ясно и безоблачно+32°C10 %747 мм3.3 м/с2 %
    21:00Ясно и безоблачно+26°C29 %748 мм1.7 м/с2 %
  • 15июля
    Понедельник
    +22°
    +37°
    Небольшая облачность
    ВремяПогодаТемператураВлажностьДавлениеВетер, м/сВероятность осадков
    00:00Ясно и безоблачно+23°C38 %748 мм1.2 м/с2 %
    03:00Ясно и безоблачно+21°C44 %748 мм0.5 м/с2 %
    06:00Ясно и безоблачно+23°C41 %748 мм0.8 м/с2 %
    09:00Ясно и безоблачно+31°C26 %749 мм2.8 м/с2 %
    12:00Небольшая облачность+35°C20 %748 мм3.6 м/с2 %
    15:00Небольшая облачность+36°C17 %747 мм3.3 м/с2 %
    18:00Пасмурно, сплошная облачность+35°C18 %747 мм2.7 м/с2 %
    21:00Облачно с прояснениями+30°C23 %748 мм1.9 м/с2 %
  • 16июля
    Вторник
    +23°
    +38°
    Облачно с прояснениями
    ВремяПогодаТемператураВлажностьДавлениеВетер, м/сВероятность осадков
    00:00Небольшая облачность+25°C25 %748 мм1.6 м/с2 %
    03:00Небольшая облачность+23°C31 %748 мм0.7 м/с2 %
    06:00Небольшая облачность+24°C33 %748 мм1.3 м/с2 %
    09:00Практически безоблачно+33°C24 %749 мм2.6 м/с2 %
    12:00Небольшая облачность+37°C18 %749 мм3.2 м/с2 %
    15:00Облачно с прояснениями+38°C16 %748 мм3.4 м/с2 %
    18:00Практически безоблачно+37°C17 %748 мм2.6 м/с2 %
    21:00Облачно с прояснениями+31°C21 %748 мм2.0 м/с2 %
  • 17июля
    Среда
    +23°
    +38°
    Практически безоблачно
    ВремяПогодаТемператураВлажностьДавлениеВетер, м/сВероятность осадков
    00:00Ясно и безоблачно+27°C27 %748 мм1.6 м/с2 %
    03:00Небольшая облачность+25°C34 %749 мм0.9 м/с2 %
    06:00Ясно и безоблачно+26°C34 %749 мм1.6 м/с2 %
    09:00Ясно и безоблачно+34°C22 %750 мм2.8 м/с2 %
    12:00Ясно и безоблачно+37°C18 %750 мм3.6 м/с2 %
    15:00Практически безоблачно+38°C17 %749 мм3.4 м/с2 %
    18:00Ясно и безоблачно+36°C18 %749 мм2.8 м/с2 %
    21:00Ясно и безоблачно+31°C24 %749 мм2.5 м/с2 %
Мы используем cookies
Соглашаюсь